createdAt,value
2019-02-27T00:01:28.634Z,5.20
2019-02-27T00:03:54.763Z,5.10
2019-02-27T00:06:22.712Z,5.00
2019-02-27T00:08:48.938Z,4.90
2019-02-27T00:11:15.185Z,4.70
2019-02-27T00:13:41.476Z,4.70
2019-02-27T00:16:10.852Z,4.60
2019-02-27T00:18:35.670Z,4.50
2019-02-27T00:21:02.020Z,4.60
2019-02-27T00:23:28.203Z,4.50
2019-02-27T00:25:54.369Z,4.20
2019-02-27T00:28:23.194Z,4.20
2019-02-27T00:30:48.530Z,4.20
2019-02-27T00:33:14.654Z,4.20
2019-02-27T00:35:40.790Z,4.20
2019-02-27T00:38:06.890Z,4.20
2019-02-27T00:40:33.150Z,4.00
2019-02-27T00:42:59.326Z,3.80
2019-02-27T00:45:25.928Z,3.80
2019-02-27T00:47:53.308Z,3.90
2019-02-27T00:50:20.076Z,3.90
2019-02-27T00:52:46.204Z,3.90
2019-02-27T00:55:12.458Z,3.80
2019-02-27T00:57:38.628Z,3.70
2019-02-27T01:00:13.574Z,3.60
2019-02-27T01:02:39.754Z,3.60
2019-02-27T01:05:09.097Z,3.50
2019-02-27T01:07:34.917Z,3.40
2019-02-27T01:10:02.196Z,3.40
2019-02-27T01:12:28.334Z,3.40
2019-02-27T01:14:54.463Z,3.30
2019-02-27T01:17:20.914Z,3.20
2019-02-27T01:19:48.688Z,3.30
2019-02-27T01:22:14.919Z,3.10
2019-02-27T01:24:40.987Z,3.10
2019-02-27T01:27:07.099Z,3.20
2019-02-27T01:29:33.224Z,3.20
2019-02-27T01:31:59.416Z,3.30
2019-02-27T01:34:25.696Z,3.10
2019-02-27T01:36:51.927Z,3.00
2019-02-27T01:39:18.158Z,2.90
2019-02-27T01:41:44.294Z,2.80
2019-02-27T01:44:11.144Z,2.60
2019-02-27T01:46:38.613Z,2.60
2019-02-27T01:49:04.732Z,2.50
2019-02-27T01:51:30.956Z,2.50
2019-02-27T01:53:57.200Z,2.30
2019-02-27T01:56:23.357Z,2.40
2019-02-27T01:58:49.563Z,2.60
2019-02-27T02:01:15.671Z,2.50
2019-02-27T02:03:47.220Z,2.50
2019-02-27T02:06:11.215Z,2.60
2019-02-27T02:08:37.377Z,2.70
2019-02-27T02:11:03.504Z,2.70
2019-02-27T02:13:36.799Z,2.70
2019-02-27T02:16:12.343Z,2.60
2019-02-27T02:18:57.145Z,2.60
2019-02-27T02:21:34.347Z,2.50
2019-02-27T02:24:24.918Z,2.80
2019-02-27T02:27:30.361Z,2.80
2019-02-27T02:30:16.842Z,2.80
2019-02-27T02:32:53.305Z,2.70
2019-02-27T02:35:51.117Z,2.50
2019-02-27T02:38:42.466Z,2.50
2019-02-27T02:41:18.548Z,2.20
2019-02-27T02:43:57.605Z,2.00
2019-02-27T02:46:49.216Z,2.10
2019-02-27T02:49:43.910Z,2.00
2019-02-27T02:52:29.450Z,1.90
2019-02-27T02:55:14.523Z,1.90
2019-02-27T02:58:01.485Z,1.90
2019-02-27T03:00:49.836Z,2.00
2019-02-27T03:03:25.470Z,2.10
2019-02-27T03:06:07.498Z,2.00
2019-02-27T03:08:55.296Z,2.20
2019-02-27T03:11:29.100Z,2.00
2019-02-27T03:14:17.280Z,1.90
2019-02-27T03:17:18.416Z,1.80
2019-02-27T03:19:48.064Z,2.20
2019-02-27T03:22:20.752Z,2.30
2019-02-27T03:24:56.327Z,2.30
2019-02-27T03:27:30.599Z,2.30
2019-02-27T03:30:33.974Z,2.50
2019-02-27T03:33:24.441Z,2.50
2019-02-27T03:36:08.789Z,2.40
2019-02-27T03:38:44.512Z,2.20
2019-02-27T03:41:29.739Z,1.90
2019-02-27T03:44:02.523Z,1.90
2019-02-27T03:46:32.504Z,1.90
2019-02-27T03:49:05.608Z,1.80
2019-02-27T03:51:44.170Z,1.60
2019-02-27T03:54:30.712Z,1.50
2019-02-27T03:57:23.268Z,1.40
2019-02-27T04:00:08.158Z,1.60
2019-02-27T04:02:49.841Z,1.50
2019-02-27T04:05:40.967Z,1.50
2019-02-27T04:08:25.104Z,1.50
2019-02-27T04:10:51.173Z,1.40
2019-02-27T04:13:17.279Z,1.30
2019-02-27T04:15:43.459Z,1.30
2019-02-27T04:18:09.342Z,1.20
2019-02-27T04:20:35.429Z,1.30
2019-02-27T04:23:01.535Z,1.30
2019-02-27T04:25:31.143Z,1.20
2019-02-27T04:27:56.365Z,1.30
2019-02-27T04:30:22.722Z,1.50
2019-02-27T04:32:49.032Z,1.60
2019-02-27T04:35:15.307Z,1.80
2019-02-27T04:37:41.426Z,1.80
2019-02-27T04:40:10.833Z,1.80
2019-02-27T04:42:35.643Z,2.00
2019-02-27T04:45:02.030Z,1.80
2019-02-27T04:47:29.247Z,1.80
2019-02-27T04:49:56.014Z,1.70
2019-02-27T04:52:24.371Z,1.60
2019-02-27T04:54:50.120Z,1.60
2019-02-27T04:57:16.219Z,1.60
2019-02-27T04:59:42.343Z,1.50
2019-02-27T05:02:08.471Z,1.50
2019-02-27T05:04:35.286Z,1.60
2019-02-27T05:07:02.965Z,1.50
2019-02-27T05:09:31.350Z,1.60
2019-02-27T05:11:57.790Z,1.60
2019-02-27T05:14:24.840Z,1.30
2019-02-27T05:16:51.910Z,1.20
2019-02-27T05:19:18.035Z,1.10
2019-02-27T05:21:44.277Z,1.10
2019-02-27T05:24:13.210Z,1.20
2019-02-27T05:26:40.262Z,1.00
2019-02-27T05:29:07.208Z,0.90
2019-02-27T05:31:35.478Z,1.00
2019-02-27T05:34:01.718Z,1.10
2019-02-27T05:36:29.008Z,1.10
2019-02-27T05:38:56.281Z,1.20
2019-02-27T05:41:22.863Z,1.20
2019-02-27T05:43:49.202Z,1.20
2019-02-27T05:46:15.817Z,1.00
2019-02-27T05:48:42.261Z,0.90
2019-02-27T05:51:10.110Z,0.90
2019-02-27T05:53:36.360Z,0.80
2019-02-27T05:56:02.729Z,0.80
2019-02-27T05:58:28.934Z,0.80
2019-02-27T06:00:55.025Z,0.70
2019-02-27T06:03:21.171Z,0.80
2019-02-27T06:05:49.730Z,0.80
2019-02-27T06:08:15.308Z,0.70
2019-02-27T06:10:41.415Z,0.50
2019-02-27T06:13:07.521Z,0.50
2019-02-27T06:15:33.711Z,0.50
2019-02-27T06:17:59.975Z,0.70
2019-02-27T06:20:26.388Z,0.60
2019-02-27T06:22:52.676Z,0.90
2019-02-27T06:25:23.338Z,0.90
2019-02-27T06:27:48.347Z,0.90
2019-02-27T06:30:16.461Z,1.00
2019-02-27T06:32:42.578Z,1.00
2019-02-27T06:35:11.363Z,0.90
2019-02-27T06:37:37.523Z,0.80
2019-02-27T06:40:14.855Z,0.80
2019-02-27T06:42:41.065Z,1.00
2019-02-27T06:45:12.705Z,1.10
2019-02-27T06:47:39.381Z,1.20
2019-02-27T06:50:08.669Z,1.10
2019-02-27T06:52:34.809Z,1.10
2019-02-27T06:55:01.010Z,1.30
2019-02-27T06:57:27.117Z,1.60
2019-02-27T06:59:53.193Z,1.80
2019-02-27T07:02:21.719Z,1.90
2019-02-27T07:04:47.289Z,2.00
2019-02-27T07:07:13.424Z,2.20
2019-02-27T07:09:39.547Z,2.30
2019-02-27T07:12:07.242Z,2.40
2019-02-27T07:14:33.714Z,2.50
2019-02-27T07:16:59.947Z,2.60
2019-02-27T07:19:26.139Z,2.90
2019-02-27T07:21:52.217Z,3.00
2019-02-27T07:24:18.359Z,3.10
2019-02-27T07:26:44.466Z,3.10
2019-02-27T07:29:10.560Z,3.20
2019-02-27T07:31:36.639Z,3.30
2019-02-27T07:34:02.881Z,3.50
2019-02-27T07:36:28.951Z,3.70
2019-02-27T07:38:57.646Z,3.60
2019-02-27T07:41:23.069Z,3.70
2019-02-27T07:43:49.170Z,3.90
2019-02-27T07:46:15.407Z,4.00
2019-02-27T07:48:41.571Z,4.10
2019-02-27T07:51:07.724Z,4.20
2019-02-27T07:53:33.898Z,4.30
2019-02-27T07:56:00.021Z,4.30
2019-02-27T07:58:26.230Z,4.40
2019-02-27T08:00:52.326Z,4.60
2019-02-27T08:03:18.450Z,4.70
2019-02-27T08:05:44.606Z,4.80
2019-02-27T08:08:10.739Z,5.00
2019-02-27T08:10:37.484Z,5.30
2019-02-27T08:13:03.858Z,5.50
2019-02-27T08:15:30.434Z,5.60
2019-02-27T08:17:57.932Z,6.00
2019-02-27T08:20:24.756Z,6.80
2019-02-27T08:22:51.041Z,7.60
2019-02-27T08:25:17.754Z,8.40
2019-02-27T08:27:44.054Z,8.70
2019-02-27T08:30:18.568Z,8.50
2019-02-27T08:32:44.975Z,8.10
2019-02-27T08:35:11.120Z,7.80
2019-02-27T08:37:37.248Z,7.70
2019-02-27T08:40:08.954Z,7.60
2019-02-27T08:42:37.330Z,7.50
2019-02-27T08:45:05.194Z,7.40
2019-02-27T08:47:31.320Z,7.30
2019-02-27T08:49:57.998Z,7.50
2019-02-27T08:52:24.856Z,7.50
2019-02-27T08:54:51.066Z,7.60
2019-02-27T08:57:17.136Z,7.70
2019-02-27T08:59:43.297Z,7.90
2019-02-27T09:02:09.467Z,8.10
2019-02-27T09:04:35.704Z,8.30
2019-02-27T09:07:02.737Z,8.60
2019-02-27T09:09:29.720Z,8.70
2019-02-27T09:11:55.852Z,8.90
2019-02-27T09:14:21.932Z,9.00
2019-02-27T09:16:48.039Z,9.00
2019-02-27T09:21:40.486Z,9.70
2019-02-27T09:24:06.608Z,9.80
2019-02-27T09:26:36.075Z,9.80
2019-02-27T09:29:00.780Z,10.00
2019-02-27T09:31:26.926Z,9.90
2019-02-27T09:33:53.324Z,10.10
2019-02-27T09:36:20.160Z,10.30
2019-02-27T09:38:46.230Z,10.60
2019-02-27T09:41:12.991Z,10.70
2019-02-27T09:43:39.461Z,11.00
2019-02-27T09:46:06.327Z,11.40
2019-02-27T09:48:33.427Z,11.70
2019-02-27T09:51:00.315Z,11.90
2019-02-27T09:53:26.527Z,12.00
2019-02-27T09:55:54.395Z,12.30
2019-02-27T09:58:22.526Z,12.70
2019-02-27T10:00:59.201Z,12.90
2019-02-27T10:03:23.468Z,13.20
2019-02-27T10:05:49.787Z,13.20
2019-02-27T10:08:16.065Z,13.60
2019-02-27T10:10:44.721Z,13.40
2019-02-27T10:13:10.339Z,13.60
2019-02-27T10:15:36.719Z,13.80
2019-02-27T10:18:03.054Z,14.00
2019-02-27T10:20:29.430Z,14.40
2019-02-27T10:22:55.571Z,14.50
2019-02-27T10:25:21.855Z,14.60
2019-02-27T10:27:48.253Z,14.90
2019-02-27T10:30:16.730Z,15.40
2019-02-27T10:32:42.974Z,15.70
2019-02-27T10:35:10.314Z,15.40
2019-02-27T10:37:36.624Z,14.90
2019-02-27T10:40:20.177Z,14.70
2019-02-27T10:42:46.286Z,14.90
2019-02-27T10:45:13.376Z,14.20
2019-02-27T10:47:39.977Z,14.70
2019-02-27T10:50:08.863Z,14.90
2019-02-27T10:52:34.985Z,15.50
2019-02-27T10:55:01.153Z,16.00
2019-02-27T10:57:31.465Z,16.30
2019-02-27T10:59:55.281Z,16.60
2019-02-27T11:02:23.441Z,16.70
2019-02-27T11:04:50.138Z,16.40
2019-02-27T11:07:16.797Z,16.70
2019-02-27T11:09:43.178Z,16.80
2019-02-27T11:12:09.321Z,16.80
2019-02-27T11:14:35.649Z,17.00
2019-02-27T11:17:02.741Z,17.30
2019-02-27T11:19:29.576Z,17.50
2019-02-27T11:21:58.388Z,17.80
2019-02-27T11:24:24.776Z,18.10
2019-02-27T11:26:51.199Z,18.20
2019-02-27T11:29:17.274Z,18.00
2019-02-27T11:31:45.458Z,17.90
2019-02-27T11:34:11.615Z,17.80
2019-02-27T11:36:38.896Z,18.00
2019-02-27T11:39:05.935Z,18.10
2019-02-27T11:41:32.019Z,18.30
2019-02-27T11:43:58.165Z,18.50
2019-02-27T11:46:24.294Z,18.00
2019-02-27T11:48:50.495Z,18.20
2019-02-27T11:51:17.518Z,18.40
2019-02-27T11:53:44.652Z,18.30
2019-02-27T11:56:10.778Z,18.60
2019-02-27T11:58:38.354Z,18.70
2019-02-27T12:01:05.383Z,18.70
2019-02-27T12:03:31.486Z,19.20
2019-02-27T12:05:57.633Z,19.50
2019-02-27T12:08:25.830Z,19.50
2019-02-27T12:10:51.875Z,19.70
2019-02-27T12:13:18.240Z,19.60
2019-02-27T12:15:44.572Z,19.70
2019-02-27T12:18:10.753Z,19.40
2019-02-27T12:20:36.987Z,19.40
2019-02-27T12:23:03.483Z,19.40
2019-02-27T12:25:30.240Z,19.20
2019-02-27T12:27:56.693Z,19.50
2019-02-27T12:30:24.795Z,19.60
2019-02-27T12:32:55.691Z,19.70
2019-02-27T12:35:25.855Z,19.60
2019-02-27T12:37:52.148Z,19.60
2019-02-27T12:40:23.920Z,19.70
2019-02-27T12:42:49.785Z,20.00
2019-02-27T12:45:18.213Z,20.30
2019-02-27T12:47:44.533Z,20.60
2019-02-27T12:50:13.564Z,20.60
2019-02-27T12:52:44.343Z,20.70
2019-02-27T12:55:08.433Z,20.60
2019-02-27T12:57:34.638Z,20.80
2019-02-27T13:00:00.839Z,20.50
2019-02-27T13:02:35.508Z,20.60
2019-02-27T13:04:55.104Z,20.80
2019-02-27T13:07:21.174Z,20.60
2019-02-27T13:09:47.300Z,20.70
2019-02-27T13:12:14.902Z,20.80
2019-02-27T13:14:41.382Z,21.10
2019-02-27T13:17:07.465Z,21.00
2019-02-27T13:19:33.600Z,20.90
2019-02-27T13:21:59.984Z,20.90
2019-02-27T13:24:26.090Z,20.50
2019-02-27T13:26:52.233Z,20.60
2019-02-27T13:29:20.539Z,20.80
2019-02-27T13:31:48.451Z,20.80
2019-02-27T13:34:14.631Z,20.80
2019-02-27T13:36:40.808Z,20.90
2019-02-27T13:39:07.248Z,20.80
2019-02-27T13:41:33.402Z,20.90
2019-02-27T13:44:01.450Z,20.70
2019-02-27T13:46:27.612Z,20.80
2019-02-27T13:48:53.690Z,20.80
2019-02-27T13:51:19.804Z,20.90
2019-02-27T13:53:45.946Z,21.10
2019-02-27T13:56:12.099Z,21.20
2019-02-27T13:58:38.261Z,21.20
2019-02-27T14:01:05.160Z,21.10
2019-02-27T14:03:31.264Z,21.20
2019-02-27T14:05:57.409Z,21.40
2019-02-27T14:08:23.743Z,21.30
2019-02-27T14:10:50.532Z,21.40
2019-02-27T14:13:17.963Z,21.50
2019-02-27T14:15:44.065Z,21.40
2019-02-27T14:18:10.233Z,21.60
2019-02-27T14:20:36.667Z,21.70
2019-02-27T14:23:03.148Z,21.90
2019-02-27T14:25:33.074Z,22.50
2019-02-27T14:27:58.689Z,23.20
2019-02-27T14:30:31.419Z,24.70
2019-02-27T14:32:57.556Z,25.60
2019-02-27T14:35:23.973Z,26.90
2019-02-27T14:37:51.135Z,27.50
2019-02-27T14:40:19.302Z,28.00
2019-02-27T14:42:45.628Z,28.60
2019-02-27T14:45:14.070Z,29.40
2019-02-27T14:47:40.708Z,29.80
2019-02-27T14:50:10.535Z,30.10
2019-02-27T14:52:36.711Z,30.10
2019-02-27T14:55:04.582Z,29.80
2019-02-27T14:57:37.996Z,29.00
2019-02-27T15:00:24.401Z,28.50
2019-02-27T15:02:52.109Z,28.10
2019-02-27T15:05:18.586Z,28.50
2019-02-27T15:07:44.955Z,28.60
2019-02-27T15:10:13.907Z,28.50
2019-02-27T15:12:40.171Z,28.30
2019-02-27T15:15:12.849Z,28.50
2019-02-27T15:17:39.182Z,28.30
2019-02-27T15:20:17.968Z,28.10
2019-02-27T15:22:44.381Z,28.10
2019-02-27T15:25:30.383Z,28.20
2019-02-27T15:27:58.879Z,27.90
2019-02-27T15:30:28.337Z,28.30
2019-02-27T15:32:54.705Z,28.10
2019-02-27T15:35:22.133Z,28.10
2019-02-27T15:37:48.797Z,27.60
2019-02-27T15:40:19.805Z,27.50
2019-02-27T15:42:46.147Z,27.30
2019-02-27T15:45:15.320Z,27.60
2019-02-27T15:47:43.710Z,27.60
2019-02-27T15:50:12.635Z,27.70
2019-02-27T15:52:40.632Z,26.80
2019-02-27T15:55:08.545Z,25.00
2019-02-27T15:57:34.734Z,23.10
2019-02-27T16:00:00.831Z,21.30
2019-02-27T16:02:29.198Z,20.20
2019-02-27T16:04:55.516Z,19.30
2019-02-27T16:07:22.475Z,18.60
2019-02-27T16:09:48.719Z,18.30
2019-02-27T16:12:14.803Z,17.90
2019-02-27T16:14:42.838Z,17.60
2019-02-27T16:17:08.948Z,17.30
2019-02-27T16:19:35.050Z,17.00
2019-02-27T16:22:01.285Z,16.70
2019-02-27T16:24:27.619Z,16.50
2019-02-27T16:26:53.765Z,16.30
2019-02-27T16:29:22.805Z,16.30
2019-02-27T16:31:48.210Z,16.20
2019-02-27T16:34:14.342Z,16.00
2019-02-27T16:36:40.629Z,15.80
2019-02-27T16:39:08.327Z,15.70
2019-02-27T16:41:34.691Z,15.60
2019-02-27T16:44:00.929Z,15.50
2019-02-27T16:46:27.113Z,15.30
2019-02-27T16:48:53.213Z,15.10
2019-02-27T16:51:19.421Z,14.80
2019-02-27T16:53:45.579Z,14.60
2019-02-27T16:56:12.843Z,14.40
2019-02-27T16:58:39.137Z,14.30
2019-02-27T17:01:06.835Z,14.10
2019-02-27T17:03:32.995Z,14.00
2019-02-27T17:05:59.286Z,13.90
2019-02-27T17:08:25.477Z,13.90
2019-02-27T17:10:52.085Z,13.80
2019-02-27T17:13:18.815Z,13.60
2019-02-27T17:15:45.038Z,13.30
2019-02-27T17:18:12.765Z,13.00
2019-02-27T17:20:39.096Z,12.90
2019-02-27T17:23:10.446Z,12.80
2019-02-27T17:25:33.294Z,12.50
2019-02-27T17:27:59.383Z,12.30
2019-02-27T17:30:37.776Z,12.20
2019-02-27T17:33:04.102Z,12.00
2019-02-27T17:35:31.327Z,11.90
2019-02-27T17:37:59.336Z,11.80
2019-02-27T17:40:25.566Z,11.60
2019-02-27T17:42:53.611Z,11.60
2019-02-27T17:45:24.045Z,11.40
2019-02-27T17:47:50.558Z,11.50
2019-02-27T17:50:17.170Z,11.40
2019-02-27T17:52:48.550Z,11.30
2019-02-27T17:55:13.453Z,11.40
2019-02-27T17:57:40.014Z,10.90
2019-02-27T18:00:10.011Z,10.80
2019-02-27T18:02:36.186Z,10.80
2019-02-27T18:05:04.231Z,10.70
2019-02-27T18:07:34.311Z,10.50
2019-02-27T18:10:01.161Z,10.40
2019-02-27T18:12:26.930Z,10.30
2019-02-27T18:14:53.960Z,10.20
2019-02-27T18:17:20.080Z,10.10
2019-02-27T18:19:47.312Z,10.30
2019-02-27T18:22:14.790Z,10.30
2019-02-27T18:24:40.969Z,10.30
2019-02-27T18:27:07.145Z,10.20
2019-02-27T18:29:34.158Z,10.10
2019-02-27T18:32:06.146Z,10.10
2019-02-27T18:34:28.326Z,10.00
2019-02-27T18:36:54.442Z,9.90
2019-02-27T18:39:20.627Z,9.70
2019-02-27T18:41:46.718Z,9.60
2019-02-27T18:44:12.904Z,9.50
2019-02-27T18:46:39.134Z,9.30
2019-02-27T18:49:05.222Z,9.50
2019-02-27T18:51:33.196Z,9.40
2019-02-27T18:53:59.532Z,9.20
2019-02-27T18:56:25.712Z,9.20
2019-02-27T18:58:51.981Z,9.10
2019-02-27T19:01:20.391Z,9.00
2019-02-27T19:03:47.633Z,8.90
2019-02-27T19:06:14.023Z,8.90
2019-02-27T19:08:40.154Z,8.70
2019-02-27T19:11:06.497Z,8.70
2019-02-27T19:13:32.578Z,8.60
2019-02-27T19:15:58.924Z,8.70
2019-02-27T19:18:25.175Z,8.80
2019-02-27T19:20:51.463Z,8.60
2019-02-27T19:23:18.452Z,8.50
2019-02-27T19:25:44.938Z,8.40
2019-02-27T19:28:11.249Z,8.30
2019-02-27T19:30:38.764Z,8.40
2019-02-27T19:33:05.574Z,8.40
2019-02-27T19:35:31.767Z,8.40
2019-02-27T19:37:58.020Z,8.30
2019-02-27T19:40:24.305Z,8.20
2019-02-27T19:42:59.469Z,8.10
2019-02-27T19:45:26.000Z,8.10
2019-02-27T19:47:54.577Z,8.10
2019-02-27T19:50:20.524Z,8.00
2019-02-27T19:52:46.867Z,7.90
2019-02-27T19:55:13.559Z,8.00
2019-02-27T19:57:42.343Z,7.90
2019-02-27T20:00:14.780Z,7.70
2019-02-27T20:02:40.974Z,7.40
2019-02-27T20:05:07.331Z,7.20
2019-02-27T20:07:35.810Z,7.10
2019-02-27T20:10:02.634Z,6.90
2019-02-27T20:12:28.952Z,6.90
2019-02-27T20:14:55.282Z,6.90
2019-02-27T20:17:21.510Z,6.80
2019-02-27T20:19:48.431Z,6.90
2019-02-27T20:22:15.383Z,6.80
2019-02-27T20:24:43.186Z,6.80
2019-02-27T20:27:09.659Z,6.80
2019-02-27T20:29:39.462Z,6.80
2019-02-27T20:32:03.792Z,6.80
2019-02-27T20:34:29.902Z,6.80
2019-02-27T20:36:56.291Z,6.80
2019-02-27T20:39:23.416Z,6.70
2019-02-27T20:41:50.573Z,6.70
2019-02-27T20:44:16.743Z,6.70
2019-02-27T20:46:42.901Z,6.50
2019-02-27T20:49:10.387Z,6.50
2019-02-27T20:51:39.996Z,6.50
2019-02-27T20:54:05.378Z,6.60
2019-02-27T20:56:32.307Z,6.60
2019-02-27T20:58:58.558Z,6.60
2019-02-27T21:01:24.769Z,6.50
2019-02-27T21:03:51.002Z,6.30
2019-02-27T21:06:17.679Z,6.20
2019-02-27T21:08:43.899Z,6.30
2019-02-27T21:11:10.127Z,6.20
2019-02-27T21:13:36.488Z,5.90
2019-02-27T21:16:04.370Z,5.80
2019-02-27T21:18:32.680Z,5.70
2019-02-27T21:20:58.824Z,5.70
2019-02-27T21:23:25.068Z,5.50
2019-02-27T21:25:51.283Z,5.40
2019-02-27T21:28:20.864Z,5.40
2019-02-27T21:30:45.429Z,5.30
2019-02-27T21:33:12.037Z,5.30
2019-02-27T21:35:38.322Z,5.10
2019-02-27T21:38:04.657Z,4.90
2019-02-27T21:40:33.446Z,4.90
2019-02-27T21:42:59.043Z,4.90
2019-02-27T21:45:25.298Z,5.00
2019-02-27T21:47:52.724Z,4.80
2019-02-27T21:50:21.932Z,4.80
2019-02-27T21:52:48.184Z,4.80
2019-02-27T21:55:15.031Z,4.90
2019-02-27T21:57:41.260Z,5.00
2019-02-27T22:00:21.014Z,5.00
2019-02-27T22:02:47.206Z,5.00
2019-02-27T22:05:18.469Z,4.90
2019-02-27T22:07:41.539Z,4.90
2019-02-27T22:10:12.880Z,5.00
2019-02-27T22:12:39.117Z,5.00
2019-02-27T22:15:11.076Z,5.00
2019-02-27T22:17:37.626Z,5.00
2019-02-27T22:20:05.831Z,5.00
2019-02-27T22:22:31.984Z,4.80
2019-02-27T22:24:58.214Z,4.80
2019-02-27T22:27:24.369Z,4.80
2019-02-27T22:29:50.560Z,4.70
2019-02-27T22:32:16.666Z,4.80
2019-02-27T22:34:42.834Z,4.70
2019-02-27T22:37:09.282Z,4.60
2019-02-27T22:39:35.419Z,4.60
2019-02-27T22:42:01.841Z,4.40
2019-02-27T22:44:29.211Z,4.30
2019-02-27T22:46:56.068Z,4.40
2019-02-27T22:49:22.254Z,4.40
2019-02-27T22:51:48.472Z,4.40
2019-02-27T22:54:14.694Z,4.40
2019-02-27T22:56:40.891Z,4.50
2019-02-27T22:59:07.050Z,4.40
2019-02-27T23:01:42.695Z,4.30
2019-02-27T23:04:09.016Z,4.40
2019-02-27T23:06:35.340Z,4.30
2019-02-27T23:09:01.755Z,4.30
2019-02-27T23:11:28.093Z,4.10
2019-02-27T23:13:54.450Z,4.00
2019-02-27T23:16:20.692Z,4.00
2019-02-27T23:18:46.982Z,4.00
2019-02-27T23:21:13.340Z,3.90
2019-02-27T23:23:39.560Z,3.80
2019-02-27T23:26:06.014Z,3.70
2019-02-27T23:28:34.669Z,3.80
2019-02-27T23:31:00.141Z,3.80
2019-02-27T23:33:26.232Z,3.80
2019-02-27T23:35:52.484Z,3.90
2019-02-27T23:38:18.697Z,4.00
2019-02-27T23:40:44.957Z,3.90
2019-02-27T23:43:11.381Z,3.90
2019-02-27T23:45:37.481Z,4.00
2019-02-27T23:48:04.264Z,4.00
2019-02-27T23:50:30.445Z,4.00
2019-02-27T23:52:57.299Z,4.10
2019-02-27T23:55:23.493Z,4.00
2019-02-27T23:57:49.620Z,3.90
